createdAt,value
2023-03-23T15:58:27.645Z,12.82
2023-03-23T16:00:54.709Z,12.67
2023-03-23T16:03:27.567Z,12.73
2023-03-23T16:05:55.926Z,12.73
2023-03-23T16:08:22.405Z,12.72
2023-03-23T16:10:49.231Z,12.62
2023-03-23T16:13:16.242Z,12.61
2023-03-23T16:15:43.065Z,12.57
2023-03-23T16:18:17.801Z,12.62
2023-03-23T16:20:44.778Z,12.53
2023-03-23T16:23:11.335Z,12.50
2023-03-23T16:25:40.831Z,12.39
2023-03-23T16:28:11.905Z,12.26
2023-03-23T16:30:39.535Z,12.28
2023-03-23T16:33:05.944Z,12.29
2023-03-23T16:35:32.724Z,12.31
2023-03-23T16:38:08.557Z,12.26
2023-03-23T16:40:37.687Z,12.25
2023-03-23T16:43:08.263Z,12.25
2023-03-23T16:45:36.878Z,12.19
2023-03-23T16:48:05.847Z,12.13
2023-03-23T16:50:32.474Z,12.01
2023-03-23T16:52:59.008Z,11.85
2023-03-23T16:55:26.979Z,11.84
2023-03-23T16:58:05.352Z,11.78
2023-03-23T17:00:35.775Z,11.81
2023-03-23T17:03:02.445Z,11.78
2023-03-23T17:05:29.452Z,11.73
2023-03-23T17:07:56.259Z,11.77
2023-03-23T17:10:24.897Z,11.80
2023-03-23T17:12:51.312Z,11.75
2023-03-23T17:15:17.818Z,11.67
2023-03-23T17:17:44.420Z,11.71
2023-03-23T17:20:11.991Z,11.63
2023-03-23T17:22:39.602Z,11.76
2023-03-23T17:25:08.282Z,11.66
2023-03-23T17:27:36.722Z,11.71
2023-03-23T17:30:06.061Z,11.73
2023-03-23T17:32:32.823Z,11.67
2023-03-23T17:34:59.277Z,11.65
2023-03-23T17:37:26.035Z,11.64
2023-03-23T17:39:52.663Z,11.57
2023-03-23T17:42:19.192Z,11.52
2023-03-23T17:44:45.866Z,11.55
2023-03-23T17:47:12.522Z,11.45
2023-03-23T17:49:38.958Z,11.42
2023-03-23T17:52:05.482Z,11.30
2023-03-23T17:54:31.921Z,11.31
2023-03-23T17:56:58.702Z,11.35
2023-03-23T17:59:25.969Z,11.35
2023-03-23T18:01:53.516Z,11.26
2023-03-23T18:04:20.688Z,11.23
2023-03-23T18:06:47.213Z,11.27
2023-03-23T18:09:14.656Z,11.18
2023-03-23T18:11:41.603Z,11.20
2023-03-23T18:14:08.163Z,11.24
2023-03-23T18:16:34.646Z,11.16
2023-03-23T18:19:01.150Z,11.04
2023-03-23T18:21:27.548Z,10.99
2023-03-23T18:23:59.544Z,10.93
2023-03-23T18:26:28.950Z,10.87
2023-03-23T18:28:56.325Z,10.86
2023-03-23T18:31:23.092Z,10.88
2023-03-23T18:33:53.934Z,10.91
2023-03-23T18:36:23.071Z,11.00
2023-03-23T18:38:49.923Z,10.94
2023-03-23T18:41:17.769Z,10.90
2023-03-23T18:43:44.237Z,10.91
2023-03-23T18:46:10.714Z,10.96
2023-03-23T18:48:37.524Z,10.89
2023-03-23T18:51:04.483Z,10.87
2023-03-23T18:53:31.386Z,10.92
2023-03-23T18:56:06.564Z,10.90
2023-03-23T18:58:32.954Z,10.90
2023-03-23T19:01:04.314Z,10.86
2023-03-23T19:03:31.056Z,10.92
2023-03-23T19:05:59.800Z,10.89
2023-03-23T19:08:28.115Z,10.85
2023-03-23T19:11:04.102Z,10.81
2023-03-23T19:13:33.953Z,10.84
2023-03-23T19:16:00.966Z,10.92
2023-03-23T19:18:28.253Z,10.98
2023-03-23T19:21:13.519Z,11.01
2023-03-23T19:23:41.614Z,11.10
2023-03-23T19:26:08.012Z,11.15
2023-03-23T19:29:18.786Z,11.16
2023-03-23T19:31:24.722Z,11.19
2023-03-23T19:33:53.042Z,11.09
2023-03-23T19:36:24.283Z,11.09
2023-03-23T19:38:51.724Z,11.10
2023-03-23T19:41:19.303Z,11.07
2023-03-23T19:43:46.471Z,11.06
2023-03-23T19:46:13.988Z,11.07
2023-03-23T19:48:41.606Z,11.01
2023-03-23T19:51:09.287Z,11.00
2023-03-23T19:53:36.386Z,11.01
2023-03-23T19:56:03.757Z,10.98
2023-03-23T19:58:32.383Z,10.94
2023-03-23T20:01:00.604Z,10.90
2023-03-23T20:03:26.979Z,10.86
2023-03-23T20:06:01.133Z,10.85
2023-03-23T20:08:29.225Z,10.84
2023-03-23T20:11:07.081Z,10.82
2023-03-23T20:13:34.809Z,10.81
2023-03-23T20:16:01.603Z,10.79
2023-03-23T20:18:29.879Z,10.78
2023-03-23T20:21:25.785Z,10.70
2023-03-23T20:23:55.237Z,10.68
2023-03-23T20:26:28.509Z,10.68
2023-03-23T20:28:55.607Z,10.74
2023-03-23T20:31:26.514Z,10.70
2023-03-23T20:34:01.966Z,10.68
2023-03-23T20:36:40.331Z,10.68
2023-03-23T20:39:11.039Z,10.66
2023-03-23T20:41:41.337Z,10.66
2023-03-23T20:44:13.673Z,10.64
2023-03-23T20:46:41.253Z,10.66
2023-03-23T20:49:08.257Z,10.61
2023-03-23T20:51:34.816Z,10.57
2023-03-23T20:54:02.047Z,10.56
2023-03-23T20:56:28.715Z,10.50
2023-03-23T20:58:55.820Z,10.46
2023-03-23T21:01:22.288Z,10.47
2023-03-23T21:03:53.890Z,10.47
2023-03-23T21:06:21.253Z,10.47
2023-03-23T21:08:48.088Z,10.46
2023-03-23T21:11:19.733Z,10.54
2023-03-23T21:13:47.063Z,10.48
2023-03-23T21:16:13.544Z,10.45
2023-03-23T21:18:40.873Z,10.46
2023-03-23T21:21:10.210Z,10.50
2023-03-23T21:23:38.402Z,10.49
2023-03-23T21:26:08.025Z,10.48
2023-03-23T21:28:34.418Z,10.43
2023-03-23T21:31:02.332Z,10.40
2023-03-23T21:33:28.890Z,10.42
2023-03-23T21:35:55.586Z,10.35
2023-03-23T21:38:26.025Z,10.33
2023-03-23T21:40:56.585Z,10.23
2023-03-23T21:43:27.070Z,10.19
2023-03-23T21:45:56.673Z,10.14
2023-03-23T21:48:24.883Z,10.08
2023-03-23T21:50:52.467Z,10.00
2023-03-23T21:53:20.703Z,9.94
2023-03-23T21:55:54.548Z,9.92
2023-03-23T21:58:23.366Z,9.94
2023-03-23T22:00:53.832Z,9.97
2023-03-23T22:03:25.091Z,9.96
2023-03-23T22:05:56.418Z,9.98
2023-03-23T22:08:25.126Z,10.02
2023-03-23T22:11:01.217Z,10.08
2023-03-23T22:13:33.229Z,10.10
2023-03-23T22:16:03.937Z,10.09
2023-03-23T22:18:33.050Z,10.14
2023-03-23T22:20:59.784Z,10.17
2023-03-23T22:23:26.732Z,10.24
2023-03-23T22:25:53.873Z,10.27
2023-03-23T22:28:20.886Z,10.31
2023-03-23T22:30:47.776Z,10.33
2023-03-23T22:33:14.981Z,10.37
2023-03-23T22:35:41.411Z,10.37
2023-03-23T22:38:07.882Z,10.35
2023-03-23T22:40:34.800Z,10.34
2023-03-23T22:43:01.274Z,10.33
2023-03-23T22:45:28.045Z,10.34
2023-03-23T22:47:55.099Z,10.34
2023-03-23T22:50:23.972Z,10.33
2023-03-23T22:52:50.783Z,10.38
2023-03-23T22:55:17.453Z,10.42
2023-03-23T22:57:43.856Z,10.36
2023-03-23T23:00:14.614Z,10.40
2023-03-23T23:02:44.654Z,10.41
2023-03-23T23:05:12.411Z,10.47
2023-03-23T23:07:45.874Z,10.50
2023-03-23T23:10:12.462Z,10.40
2023-03-23T23:12:39.183Z,10.30
2023-03-23T23:15:06.945Z,10.26
2023-03-23T23:17:34.722Z,10.25
2023-03-23T23:20:05.445Z,10.25
2023-03-23T23:22:32.514Z,10.29
2023-03-23T23:24:58.975Z,10.30
2023-03-23T23:27:25.807Z,10.37
2023-03-23T23:29:52.266Z,10.54
2023-03-23T23:32:18.717Z,10.52
2023-03-23T23:34:45.454Z,10.53
2023-03-23T23:37:11.937Z,10.51
2023-03-23T23:39:40.649Z,10.53
2023-03-23T23:42:07.135Z,10.52
2023-03-23T23:44:33.687Z,10.50
2023-03-23T23:47:00.272Z,10.51
2023-03-23T23:49:29.873Z,10.48
2023-03-23T23:51:56.525Z,10.45
2023-03-23T23:54:29.546Z,10.44
2023-03-23T23:59:25.398Z,10.43
